createdAt,value
2019-01-06T00:01:15.438Z,100.00
2019-01-06T00:03:45.430Z,100.00
2019-01-06T00:06:24.413Z,100.00
2019-01-06T00:08:54.410Z,100.00
2019-01-06T00:11:26.941Z,100.00
2019-01-06T00:14:05.936Z,100.00
2019-01-06T00:16:36.040Z,100.00
2019-01-06T00:19:24.492Z,100.00
2019-01-06T00:22:00.247Z,100.00
2019-01-06T00:24:30.246Z,100.00
2019-01-06T00:27:15.307Z,100.00
2019-01-06T00:29:51.086Z,100.00
2019-01-06T00:32:26.810Z,100.00
2019-01-06T00:35:13.112Z,100.00
2019-01-06T00:37:59.600Z,100.00
2019-01-06T00:40:38.596Z,100.00
2019-01-06T00:43:11.107Z,100.00
2019-01-06T00:45:46.853Z,100.00
2019-01-06T00:48:16.891Z,100.00
2019-01-06T00:50:58.562Z,100.00
2019-01-06T00:53:37.281Z,100.00
2019-01-06T00:56:09.825Z,100.00
2019-01-06T00:58:48.753Z,100.00
2019-01-06T01:01:30.729Z,100.00
2019-01-06T01:04:00.847Z,100.00
2019-01-06T01:06:33.723Z,100.00
2019-01-06T01:09:45.009Z,100.00
2019-01-06T01:12:30.397Z,100.00
2019-01-06T01:15:17.795Z,100.00
2019-01-06T01:18:04.965Z,100.00
2019-01-06T01:20:34.963Z,100.00
2019-01-06T01:23:11.111Z,100.00
2019-01-06T01:25:57.295Z,100.00
2019-01-06T01:28:29.848Z,100.00
2019-01-06T01:31:18.220Z,100.00
2019-01-06T01:33:57.249Z,100.00
2019-01-06T01:36:27.245Z,100.00
2019-01-06T01:39:06.204Z,100.00
2019-01-06T01:41:38.952Z,100.00
2019-01-06T01:44:21.029Z,100.00
2019-01-06T01:47:00.039Z,100.00
2019-01-06T01:49:46.229Z,100.00
2019-01-06T01:52:16.249Z,100.00
2019-01-06T01:54:51.997Z,100.00
2019-01-06T01:57:38.127Z,100.00
2019-01-06T02:00:24.785Z,100.00
2019-01-06T02:02:54.869Z,100.00
2019-01-06T02:05:24.910Z,100.00
2019-01-06T02:07:54.915Z,100.00
2019-01-06T02:10:27.678Z,100.00
2019-01-06T02:13:00.202Z,100.00
2019-01-06T02:15:35.825Z,100.00
2019-01-06T02:18:05.899Z,100.00
2019-01-06T02:20:54.349Z,100.00
2019-01-06T02:23:42.517Z,100.00
2019-01-06T02:26:27.776Z,100.00
2019-01-06T02:29:06.574Z,100.00
2019-01-06T02:31:45.534Z,100.00
2019-01-06T02:34:32.229Z,100.00
2019-01-06T02:37:02.236Z,100.00
2019-01-06T02:39:48.180Z,100.00
2019-01-06T02:42:34.855Z,100.00
2019-01-06T02:45:21.206Z,100.00
2019-01-06T02:48:06.149Z,100.00
2019-01-06T02:50:52.463Z,100.00
2019-01-06T02:53:31.034Z,100.00
2019-01-06T02:56:09.865Z,100.00
2019-01-06T02:58:55.955Z,100.00
2019-01-06T03:01:42.169Z,100.00
2019-01-06T03:04:28.173Z,100.00
2019-01-06T03:06:58.183Z,100.00
2019-01-06T03:09:28.235Z,100.00
2019-01-06T03:12:16.169Z,100.00
2019-01-06T03:14:52.132Z,100.00
2019-01-06T03:17:36.995Z,100.00
2019-01-06T03:20:25.874Z,100.00
2019-01-06T03:23:01.938Z,100.00
2019-01-06T03:25:48.160Z,100.00
2019-01-06T03:28:27.429Z,100.00
2019-01-06T03:31:00.694Z,100.00
2019-01-06T03:33:34.612Z,100.00
2019-01-06T03:36:04.723Z,100.00
2019-01-06T03:38:40.696Z,100.00
2019-01-06T03:41:13.608Z,100.00
2019-01-06T03:43:52.657Z,100.00
2019-01-06T03:46:22.901Z,100.00
2019-01-06T03:49:11.374Z,100.00
2019-01-06T03:51:41.415Z,100.00
2019-01-06T03:54:14.290Z,100.00
2019-01-06T03:57:00.380Z,100.00
2019-01-06T03:59:33.244Z,100.00
2019-01-06T04:02:12.087Z,100.00
2019-01-06T04:04:58.869Z,100.00
2019-01-06T04:07:31.850Z,100.00
2019-01-06T04:10:18.152Z,100.00
2019-01-06T04:13:04.098Z,100.00
2019-01-06T04:15:45.711Z,100.00
2019-01-06T04:18:27.725Z,100.00
2019-01-06T04:21:00.508Z,100.00
2019-01-06T04:23:39.378Z,100.00
2019-01-06T04:26:09.503Z,100.00
2019-01-06T04:28:42.227Z,100.00
2019-01-06T04:31:18.415Z,100.00
2019-01-06T04:33:48.497Z,100.00
2019-01-06T04:36:34.505Z,100.00
2019-01-06T04:39:04.509Z,100.00
2019-01-06T04:41:38.117Z,100.00
2019-01-06T04:44:08.567Z,100.00
2019-01-06T04:46:54.729Z,100.00
2019-01-06T04:49:30.507Z,100.00
2019-01-06T04:52:16.879Z,100.00
2019-01-06T04:54:52.650Z,100.00
2019-01-06T04:57:25.104Z,100.00
2019-01-06T05:00:13.202Z,100.00
2019-01-06T05:02:43.241Z,100.00
2019-01-06T05:05:13.246Z,100.00
2019-01-06T05:07:45.809Z,100.00
2019-01-06T05:10:27.572Z,100.00
2019-01-06T05:13:03.622Z,100.00
2019-01-06T05:15:45.464Z,100.00
2019-01-06T05:18:15.770Z,100.00
2019-01-06T05:21:02.177Z,100.00
2019-01-06T05:23:48.397Z,100.00
2019-01-06T05:26:18.392Z,100.00
2019-01-06T05:29:03.459Z,100.00
2019-01-06T05:31:33.472Z,100.00
2019-01-06T05:34:09.505Z,100.00
2019-01-06T05:36:39.522Z,100.00
2019-01-06T05:39:09.562Z,100.00
2019-01-06T05:41:39.569Z,100.00
2019-01-06T05:44:16.553Z,100.00
2019-01-06T05:46:52.222Z,100.00
2019-01-06T05:49:38.510Z,100.00
2019-01-06T05:52:26.829Z,100.00
2019-01-06T05:55:11.698Z,100.00
2019-01-06T05:57:53.407Z,100.00
2019-01-06T06:00:32.387Z,100.00
2019-01-06T06:03:17.457Z,100.00
2019-01-06T06:05:53.541Z,100.00
2019-01-06T06:08:23.543Z,100.00
2019-01-06T06:11:08.596Z,100.00
2019-01-06T06:13:53.362Z,100.00
2019-01-06T06:16:39.812Z,100.00
2019-01-06T06:19:26.370Z,100.00
2019-01-06T06:21:58.833Z,100.00
2019-01-06T06:24:40.774Z,100.00
2019-01-06T06:27:10.765Z,100.00
2019-01-06T06:29:58.843Z,100.00
2019-01-06T06:32:35.052Z,100.00
2019-01-06T06:35:20.440Z,100.00
2019-01-06T06:38:02.613Z,100.00
2019-01-06T06:40:38.501Z,100.00
2019-01-06T06:43:17.765Z,100.00
2019-01-06T06:46:02.814Z,100.00
2019-01-06T06:48:48.709Z,100.00
2019-01-06T06:51:21.526Z,100.00
2019-01-06T06:53:54.573Z,100.00
2019-01-06T06:56:30.537Z,100.00
2019-01-06T06:59:09.260Z,100.00
2019-01-06T07:01:45.450Z,100.00
2019-01-06T07:04:30.547Z,100.00
2019-01-06T07:07:06.328Z,100.00
2019-01-06T07:09:52.471Z,100.00
2019-01-06T07:12:28.561Z,100.00
2019-01-06T07:15:14.825Z,100.00
2019-01-06T07:17:57.849Z,100.00
2019-01-06T07:20:46.574Z,100.00
2019-01-06T07:23:19.558Z,100.00
2019-01-06T07:26:05.941Z,100.00
2019-01-06T07:28:52.392Z,100.00
2019-01-06T07:31:31.202Z,100.00
2019-01-06T07:34:01.205Z,100.00
2019-01-06T07:36:47.411Z,100.00
2019-01-06T07:39:33.842Z,100.00
2019-01-06T07:42:03.894Z,100.00
2019-01-06T07:44:52.205Z,100.00
2019-01-06T07:47:22.238Z,100.00
2019-01-06T07:49:54.977Z,100.00
2019-01-06T07:52:25.014Z,100.00
2019-01-06T07:54:55.016Z,100.00
2019-01-06T07:57:25.142Z,100.00
2019-01-06T07:59:56.546Z,100.00
2019-01-06T08:02:31.096Z,100.00
2019-01-06T08:05:10.057Z,100.00
2019-01-06T08:07:40.098Z,100.00
2019-01-06T08:10:25.787Z,100.00
2019-01-06T08:13:12.678Z,100.00
2019-01-06T08:15:57.758Z,100.00
2019-01-06T08:18:37.085Z,100.00
2019-01-06T08:21:12.745Z,100.00
2019-01-06T08:23:54.675Z,100.00
2019-01-06T08:26:30.206Z,100.00
2019-01-06T08:29:16.620Z,100.00
2019-01-06T08:31:46.616Z,100.00
2019-01-06T08:34:19.063Z,100.00
2019-01-06T08:37:04.396Z,100.00
2019-01-06T08:39:50.288Z,100.00
2019-01-06T08:42:32.312Z,100.00
2019-01-06T08:45:02.328Z,100.00
2019-01-06T08:47:32.323Z,100.00
2019-01-06T08:50:13.507Z,100.00
2019-01-06T08:52:59.669Z,100.00
2019-01-06T08:55:41.247Z,100.00
2019-01-06T08:58:13.967Z,100.00
2019-01-06T09:00:46.438Z,100.00
2019-01-06T09:03:16.482Z,100.00
2019-01-06T09:05:46.901Z,100.00
2019-01-06T09:08:28.775Z,100.00
2019-01-06T09:11:15.210Z,100.00
2019-01-06T09:13:48.245Z,100.00
2019-01-06T09:16:27.211Z,100.00
2019-01-06T09:19:13.870Z,100.00
2019-01-06T09:21:56.352Z,100.00
2019-01-06T09:24:35.008Z,100.00
2019-01-06T09:27:07.919Z,100.00
2019-01-06T09:29:37.939Z,100.00
2019-01-06T09:32:24.187Z,100.00
2019-01-06T09:34:57.284Z,100.00
2019-01-06T09:37:42.629Z,100.00
2019-01-06T09:40:12.651Z,100.00
2019-01-06T09:42:52.298Z,100.00
2019-01-06T09:45:38.621Z,100.00
2019-01-06T09:48:10.259Z,100.00
2019-01-06T09:50:52.730Z,100.00
2019-01-06T09:53:39.466Z,99.47
2019-01-06T09:56:18.433Z,100.00
2019-01-06T09:59:07.164Z,99.15
2019-01-06T10:01:42.969Z,99.50
2019-01-06T10:04:34.949Z,99.44
2019-01-06T10:07:03.532Z,98.72
2019-01-06T10:09:33.554Z,97.97
2019-01-06T10:12:03.557Z,98.28
2019-01-06T10:14:39.659Z,98.31
2019-01-06T10:17:26.235Z,99.15
2019-01-06T10:19:56.271Z,98.28
2019-01-06T10:22:26.293Z,98.59
2019-01-06T10:25:12.492Z,99.03
2019-01-06T10:27:48.252Z,98.60
2019-01-06T10:30:18.349Z,97.54
2019-01-06T10:33:06.641Z,97.72
2019-01-06T10:35:53.071Z,97.19
2019-01-06T10:38:39.808Z,97.78
2019-01-06T10:41:13.241Z,97.72
2019-01-06T10:43:58.584Z,98.29
2019-01-06T10:46:37.606Z,97.78
2019-01-06T10:49:10.602Z,98.42
2019-01-06T10:51:43.411Z,97.05
2019-01-06T10:54:29.660Z,96.97
2019-01-06T10:57:05.499Z,96.64
2019-01-06T10:59:41.182Z,97.26
2019-01-06T11:02:20.244Z,97.15
2019-01-06T11:05:08.571Z,96.97
2019-01-06T11:07:53.373Z,96.52
2019-01-06T11:10:39.400Z,97.00
2019-01-06T11:13:09.543Z,98.08
2019-01-06T11:15:48.039Z,97.45
2019-01-06T11:18:23.476Z,96.75
2019-01-06T11:20:56.236Z,97.24
2019-01-06T11:23:31.139Z,96.66
2019-01-06T11:26:04.289Z,96.10
2019-01-06T11:28:37.473Z,96.54
2019-01-06T11:31:23.698Z,96.81
2019-01-06T11:34:02.500Z,97.06
2019-01-06T11:36:35.291Z,97.86
2019-01-06T11:39:14.598Z,96.87
2019-01-06T11:41:47.121Z,97.29
2019-01-06T11:44:33.259Z,97.50
2019-01-06T11:47:03.282Z,97.04
2019-01-06T11:49:48.248Z,96.54
2019-01-06T11:52:18.346Z,96.87
2019-01-06T11:54:57.062Z,97.77
2019-01-06T11:57:35.815Z,96.67
2019-01-06T12:00:07.063Z,96.51
2019-01-06T12:02:53.564Z,97.32
2019-01-06T12:05:23.571Z,96.40
2019-01-06T12:08:09.852Z,96.48
2019-01-06T12:10:51.827Z,96.74
2019-01-06T12:13:22.635Z,97.22
2019-01-06T12:16:09.351Z,97.47
2019-01-06T12:18:54.388Z,97.52
2019-01-06T12:21:40.746Z,97.88
2019-01-06T12:24:26.947Z,97.52
2019-01-06T12:27:13.113Z,98.03
2019-01-06T12:29:58.241Z,98.80
2019-01-06T12:32:34.191Z,98.67
2019-01-06T12:35:20.634Z,98.45
2019-01-06T12:40:51.039Z,99.23
2019-01-06T12:43:23.990Z,98.59
2019-01-06T12:46:08.758Z,97.93
2019-01-06T12:48:38.789Z,98.55
2019-01-06T12:51:08.792Z,98.94
2019-01-06T12:53:55.047Z,100.00
2019-01-06T12:56:41.357Z,99.85
2019-01-06T12:59:11.418Z,99.77
2019-01-06T13:01:50.167Z,100.00
2019-01-06T13:04:20.225Z,100.00
2019-01-06T13:07:06.931Z,100.00
2019-01-06T13:09:53.185Z,100.00
2019-01-06T13:12:34.999Z,100.00
2019-01-06T13:15:05.127Z,100.00
2019-01-06T13:17:35.199Z,100.00
2019-01-06T13:20:21.868Z,100.00
2019-01-06T13:22:51.875Z,100.00
2019-01-06T13:25:36.643Z,100.00
2019-01-06T13:28:21.627Z,100.00
2019-01-06T13:30:57.547Z,100.00
2019-01-06T13:33:30.385Z,100.00
2019-01-06T13:36:03.486Z,100.00
2019-01-06T13:38:33.488Z,100.00
2019-01-06T13:41:06.265Z,100.00
2019-01-06T13:43:45.053Z,100.00
2019-01-06T13:46:31.363Z,100.00
2019-01-06T13:49:17.755Z,100.00
2019-01-06T13:52:04.222Z,100.00
2019-01-06T13:54:34.283Z,100.00
2019-01-06T13:57:20.538Z,100.00
2019-01-06T13:59:53.543Z,100.00
2019-01-06T14:02:39.675Z,100.00
2019-01-06T14:05:21.815Z,100.00
2019-01-06T14:08:08.246Z,100.00
2019-01-06T14:10:54.341Z,100.00
2019-01-06T14:13:40.554Z,100.00
2019-01-06T14:16:26.677Z,100.00
2019-01-06T14:19:12.977Z,100.00
2019-01-06T14:21:48.466Z,100.00
2019-01-06T14:24:26.958Z,100.00
2019-01-06T14:27:02.704Z,100.00
2019-01-06T14:29:38.434Z,100.00
2019-01-06T14:32:11.201Z,100.00
2019-01-06T14:34:41.277Z,100.00
2019-01-06T14:37:27.827Z,100.00
2019-01-06T14:40:03.801Z,100.00
2019-01-06T14:42:39.461Z,100.00
2019-01-06T14:45:12.215Z,100.00
2019-01-06T14:47:42.327Z,100.00
2019-01-06T14:50:15.262Z,100.00
2019-01-06T14:52:57.313Z,100.00
2019-01-06T14:55:42.233Z,100.00
2019-01-06T14:58:12.286Z,100.00
2019-01-06T15:00:58.710Z,100.00
2019-01-06T15:03:45.171Z,100.00
2019-01-06T15:06:15.171Z,100.00
2019-01-06T15:08:59.882Z,99.65
2019-01-06T15:11:44.607Z,99.45
2019-01-06T15:14:30.745Z,99.96
2019-01-06T15:17:12.740Z,99.89
2019-01-06T15:19:58.075Z,99.13
2019-01-06T15:22:34.176Z,98.95
2019-01-06T15:25:12.960Z,98.83
2019-01-06T15:27:43.127Z,99.09
2019-01-06T15:30:29.330Z,99.68
2019-01-06T15:33:01.900Z,99.11
2019-01-06T15:35:43.925Z,99.29
2019-01-06T15:38:16.385Z,99.01
2019-01-06T15:40:55.305Z,99.36
2019-01-06T15:43:41.457Z,99.33
2019-01-06T15:46:11.467Z,98.67
2019-01-06T15:48:57.478Z,99.20
2019-01-06T15:51:42.500Z,99.18
2019-01-06T15:54:18.213Z,99.33
2019-01-06T15:57:04.602Z,100.00
2019-01-06T15:59:49.795Z,100.00
2019-01-06T16:02:19.815Z,100.00
2019-01-06T16:04:52.578Z,100.00
2019-01-06T16:07:38.682Z,100.00
2019-01-06T16:10:15.698Z,99.56
2019-01-06T16:12:54.507Z,99.70
2019-01-06T16:15:24.539Z,99.45
2019-01-06T16:18:10.441Z,100.00
2019-01-06T16:20:46.008Z,99.55
2019-01-06T16:23:33.790Z,99.23
2019-01-06T16:26:06.759Z,99.06
2019-01-06T16:28:52.000Z,99.60
2019-01-06T16:31:38.531Z,99.70
2019-01-06T16:34:17.746Z,99.83
2019-01-06T16:36:47.789Z,100.00
2019-01-06T16:39:20.294Z,99.83
2019-01-06T16:41:56.027Z,100.00
2019-01-06T16:44:31.960Z,100.00
2019-01-06T16:47:17.029Z,100.00
2019-01-06T16:50:03.059Z,100.00
2019-01-06T16:52:49.395Z,100.00
2019-01-06T16:55:22.134Z,100.00
2019-01-06T16:57:52.165Z,99.70
2019-01-06T17:00:25.168Z,100.00
2019-01-06T17:02:55.171Z,100.00
2019-01-06T17:05:33.728Z,99.20
2019-01-06T17:08:19.829Z,99.58
2019-01-06T17:11:01.899Z,99.43
2019-01-06T17:13:37.860Z,99.60
2019-01-06T17:16:13.991Z,99.68
2019-01-06T17:18:46.449Z,99.85
2019-01-06T17:21:19.564Z,100.00
2019-01-06T17:23:49.565Z,99.82
2019-01-06T17:26:31.823Z,99.84
2019-01-06T17:29:01.836Z,99.41
2019-01-06T17:31:40.448Z,99.23
2019-01-06T17:34:25.762Z,99.88
2019-01-06T17:37:01.414Z,100.00
2019-01-06T17:39:33.872Z,100.00
2019-01-06T17:42:03.910Z,100.00
2019-01-06T17:44:50.079Z,100.00
2019-01-06T17:47:22.650Z,100.00
2019-01-06T17:50:08.895Z,100.00
2019-01-06T17:52:53.562Z,100.00
2019-01-06T17:55:23.572Z,100.00
2019-01-06T17:58:02.756Z,100.00
2019-01-06T18:00:32.808Z,100.00
2019-01-06T18:03:05.268Z,100.00
2019-01-06T18:05:41.135Z,100.00
2019-01-06T18:08:17.002Z,100.00
2019-01-06T18:10:59.115Z,100.00
2019-01-06T18:13:47.281Z,100.00
2019-01-06T18:16:22.974Z,100.00
2019-01-06T18:18:53.595Z,100.00
2019-01-06T18:21:29.850Z,100.00
2019-01-06T18:24:16.163Z,100.00
2019-01-06T18:27:02.775Z,100.00
2019-01-06T18:29:39.092Z,100.00
2019-01-06T18:32:24.473Z,100.00
2019-01-06T18:34:57.245Z,100.00
2019-01-06T18:37:43.141Z,100.00
2019-01-06T18:40:19.155Z,100.00
2019-01-06T18:42:52.154Z,100.00
2019-01-06T18:45:28.082Z,100.00
2019-01-06T18:47:58.415Z,100.00
2019-01-06T18:50:46.239Z,100.00
2019-01-06T18:53:34.125Z,100.00
2019-01-06T18:56:04.191Z,100.00
2019-01-06T18:58:40.072Z,100.00
2019-01-06T19:01:12.866Z,100.00
2019-01-06T19:03:45.383Z,100.00
2019-01-06T19:06:27.718Z,100.00
2019-01-06T19:08:57.821Z,100.00
2019-01-06T19:11:45.168Z,100.00
2019-01-06T19:14:31.344Z,100.00
2019-01-06T19:17:17.350Z,100.00
2019-01-06T19:20:03.388Z,100.00
2019-01-06T19:22:42.384Z,100.00
2019-01-06T19:25:29.110Z,100.00
2019-01-06T19:28:15.199Z,100.00
2019-01-06T19:31:03.212Z,100.00
2019-01-06T19:33:36.061Z,100.00
2019-01-06T19:36:06.189Z,100.00
2019-01-06T19:38:45.242Z,100.00
2019-01-06T19:41:17.879Z,100.00
2019-01-06T19:43:56.925Z,100.00
2019-01-06T19:46:36.168Z,100.00
2019-01-06T19:49:06.625Z,100.00
2019-01-06T19:51:39.827Z,100.00
2019-01-06T19:54:25.033Z,100.00
2019-01-06T19:57:13.277Z,100.00
2019-01-06T19:59:59.767Z,100.00
2019-01-06T20:02:35.752Z,100.00
2019-01-06T20:05:06.464Z,100.00
2019-01-06T20:07:55.002Z,100.00
2019-01-06T20:10:34.016Z,100.00
2019-01-06T20:13:13.253Z,100.00
2019-01-06T20:18:18.693Z,100.00
2019-01-06T20:20:51.966Z,100.00
2019-01-06T20:23:25.009Z,100.00
2019-01-06T20:25:59.055Z,100.00
2019-01-06T20:28:29.074Z,100.00
2019-01-06T20:31:17.425Z,100.00
2019-01-06T20:33:52.950Z,100.00
2019-01-06T20:36:25.668Z,100.00
2019-01-06T20:39:01.524Z,100.00
2019-01-06T20:41:37.136Z,100.00
2019-01-06T20:44:19.403Z,100.00
2019-01-06T20:46:52.253Z,100.00
2019-01-06T20:49:22.770Z,100.00
2019-01-06T20:52:02.468Z,100.00
2019-01-06T20:54:50.939Z,100.00
2019-01-06T20:57:30.133Z,100.00
2019-01-06T21:00:16.520Z,100.00
2019-01-06T21:02:49.686Z,100.00
2019-01-06T21:05:19.678Z,100.00
2019-01-06T21:08:08.183Z,100.00
2019-01-06T21:13:33.586Z,100.00
2019-01-06T21:16:07.129Z,100.00
2019-01-06T21:18:45.590Z,100.00
2019-01-06T21:21:15.601Z,100.00
2019-01-06T21:24:00.654Z,100.00
2019-01-06T21:26:30.699Z,100.00
2019-01-06T21:29:17.115Z,100.00
2019-01-06T21:31:50.626Z,100.00
2019-01-06T21:34:37.204Z,100.00
2019-01-06T21:37:25.677Z,100.00
2019-01-06T21:39:58.988Z,100.00
2019-01-06T21:42:29.230Z,100.00
2019-01-06T21:45:17.985Z,100.00
2019-01-06T21:47:57.606Z,100.00
2019-01-06T21:50:40.195Z,100.00
2019-01-06T21:53:22.550Z,100.00
2019-01-06T21:55:52.560Z,100.00
2019-01-06T21:58:34.627Z,100.00
2019-01-06T22:01:05.111Z,100.00
2019-01-06T22:03:52.066Z,100.00
2019-01-06T22:06:34.538Z,100.00
2019-01-06T22:09:25.255Z,100.00
2019-01-06T22:12:11.771Z,100.00
2019-01-06T22:14:47.818Z,100.00
2019-01-06T22:17:18.278Z,100.00
2019-01-06T22:19:48.388Z,100.00
2019-01-06T22:22:24.921Z,100.00
2019-01-06T22:24:55.128Z,100.00
2019-01-06T22:27:28.362Z,100.00
2019-01-06T22:30:00.364Z,100.00
2019-01-06T22:32:49.301Z,100.00
2019-01-06T22:35:22.310Z,100.00
2019-01-06T22:38:01.448Z,100.00
2019-01-06T22:40:34.203Z,100.00
2019-01-06T22:43:07.318Z,100.00
2019-01-06T22:45:40.265Z,100.00
2019-01-06T22:48:27.041Z,100.00
2019-01-06T22:50:57.146Z,100.00
2019-01-06T22:53:35.933Z,100.00
2019-01-06T22:56:09.850Z,100.00
2019-01-06T22:58:56.801Z,100.00
2019-01-06T23:01:32.769Z,100.00
2019-01-06T23:04:08.499Z,100.00
2019-01-06T23:06:41.511Z,100.00
2019-01-06T23:09:27.346Z,100.00
2019-01-06T23:12:02.481Z,100.00
2019-01-06T23:14:33.125Z,100.00
2019-01-06T23:17:19.003Z,100.00
2019-01-06T23:19:49.399Z,100.00
2019-01-06T23:22:25.028Z,100.00
2019-01-06T23:24:57.739Z,100.00
2019-01-06T23:27:27.791Z,100.00
2019-01-06T23:30:13.085Z,100.00
2019-01-06T23:32:46.106Z,100.00
2019-01-06T23:35:24.908Z,100.00
2019-01-06T23:38:10.981Z,100.00
2019-01-06T23:40:50.599Z,100.00
2019-01-06T23:43:33.431Z,100.00
2019-01-06T23:46:12.858Z,100.00
2019-01-06T23:48:43.005Z,100.00
2019-01-06T23:51:17.527Z,100.00
2019-01-06T23:54:02.828Z,100.00
2019-01-06T23:56:42.047Z,100.00
2019-01-06T23:59:12.451Z,100.00
